SE Lincoln WX Station Historical Data
 
Daily Summary for October 07, 2022 Units:  English    Metric   Both
Daily Weekly Monthly Yearly
  Current: High: Low: Average:
Temperature: 43.4 °F 49.4 °F 43.1 °F 46.3 °F
Dew Point: 34.5 °F 37.6 °F 33.3 °F 34.6 °F
Humidity: 70.6% 73.7% 54% 64%
Wind Speed: 0.2mph 2.5mph 0mph 0.8mph
Wind Gust: 3mph 8mph - -
WindNW - - SSE
Pressure: 30.54 in 30.54 in 30.40 in -
Precipitation: 0.02 in      
 
 
Tabular Data for October 07, 2022
Time Temperature Dew Point Pressure Wind Wind Speed Wind Gust Humidity Rainfall Rate (Hourly) solar
00:04 49.4 °F 33.5 °F 30.41 in NNE 1.2 mph 4 mph 54% 0.00 in 0 W/m2
00:09 49.3 °F 33.4 °F 30.42 in North 1 mph 3 mph 54% 0.00 in 0 W/m2
00:14 49.2 °F 33.4 °F 30.42 in East 1.8 mph 7 mph 54.1% 0.00 in 0 W/m2
00:19 49.1 °F 33.7 °F 30.42 in North 1.5 mph 7 mph 55% 0.00 in 0 W/m2
00:24 49 °F 33.5 °F 30.42 in ENE 0.8 mph 5 mph 55% 0.00 in 0 W/m2
00:29 48.8 °F 33.4 °F 30.42 in ENE 1 mph 4 mph 55% 0.00 in 0 W/m2
00:34 48.7 °F 33.4 °F 30.41 in ENE 1.1 mph 5 mph 55.4% 0.00 in 0 W/m2
00:39 48.5 °F 33.5 °F 30.41 in NE 1.2 mph 5 mph 55.8% 0.00 in 0 W/m2
00:44 48.4 °F 33.4 °F 30.41 in ENE 1.1 mph 6 mph 56% 0.00 in 0 W/m2
00:49 48.3 °F 33.3 °F 30.41 in ENE 1.3 mph 5 mph 56% 0.00 in 0 W/m2
00:54 48.1 °F 33.6 °F 30.41 in NE 0.7 mph 3 mph 57% 0.00 in 0 W/m2
00:59 48 °F 33.5 °F 30.41 in ENE 0.4 mph 3 mph 57% 0.00 in 0 W/m2
01:04 48 °F 33.5 °F 30.42 in NE 0.8 mph 5 mph 57% 0.00 in 0 W/m2
01:09 47.9 °F 33.6 °F 30.42 in NNE 0.7 mph 2 mph 57.3% 0.00 in 0 W/m2
01:14 47.9 °F 33.8 °F 30.41 in NE 0.9 mph 5 mph 58% 0.00 in 0 W/m2
01:19 47.8 °F 33.8 °F 30.41 in ENE 1.2 mph 5 mph 58% 0.00 in 0 W/m2
01:24 47.7 °F 33.7 °F 30.40 in NNE 1 mph 6 mph 58% 0.00 in 0 W/m2
01:29 47.7 °F 33.7 °F 30.41 in SE 1.5 mph 6 mph 58% 0.00 in 0 W/m2
01:34 47.6 °F 33.7 °F 30.41 in SW 0.6 mph 3 mph 58.3% 0.00 in 0 W/m2
01:39 47.6 °F 33.6 °F 30.41 in SE 0.6 mph 4 mph 58.1% 0.00 in 0 W/m2
01:44 47.6 °F 34 °F 30.41 in ESE 1.3 mph 5 mph 59% 0.00 in 0 W/m2
01:49 47.6 °F 34.1 °F 30.41 in NNE 1.4 mph 5 mph 59.2% 0.00 in 0 W/m2
01:54 47.7 °F 34.6 °F 30.41 in NNW 0.4 mph 3 mph 60.2% 0.00 in 0 W/m2
01:59 47.7 °F 34.7 °F 30.41 in NE 1.6 mph 5 mph 60.5% 0.00 in 0 W/m2
02:04 47.8 °F 34.6 °F 30.42 in ENE 0.3 mph 3 mph 60% 0.00 in 0 W/m2
02:09 47.8 °F 34.5 °F 30.42 in ENE 1.3 mph 5 mph 59.8% 0.00 in 0 W/m2
02:14 47.8 °F 34.5 °F 30.41 in ENE 0.6 mph 3 mph 59.9% 0.00 in 0 W/m2
02:19 47.8 °F 34.5 °F 30.42 in ENE 0.5 mph 2 mph 59.8% 0.00 in 0 W/m2
02:24 47.8 °F 34.6 °F 30.43 in NE 0.5 mph 2 mph 60% 0.00 in 0 W/m2
02:29 47.8 °F 34.6 °F 30.43 in NW 0.4 mph 5 mph 59.9% 0.00 in 0 W/m2
02:34 47.9 °F 34.7 °F 30.43 in North 0.2 mph 3 mph 60% 0.00 in 0 W/m2
02:39 48 °F 34.5 °F 30.43 in East 1 mph 5 mph 59.3% 0.00 in 0 W/m2
02:44 48.1 °F 34.4 °F 30.43 in East 2.5 mph 8 mph 58.9% 0.00 in 0 W/m2
02:49 48.2 °F 34.2 °F 30.43 in ENE 2.2 mph 8 mph 58.2% 0.00 in 0 W/m2
02:54 48.2 °F 34.2 °F 30.44 in North 0.1 mph 2 mph 58.1% 0.00 in 0 W/m2
02:59 48.2 °F 34.6 °F 30.44 in North 0.3 mph 2 mph 59% 0.00 in 0 W/m2
03:04 48.2 °F 34.5 °F 30.44 in North 0.7 mph 2 mph 58.8% 0.00 in 0 W/m2
03:09 48.1 °F 34.1 °F 30.44 in NNW 0.9 mph 3 mph 58% 0.00 in 0 W/m2
03:14 48.1 °F 34.1 °F 30.45 in NE 1.4 mph 5 mph 58% 0.00 in 0 W/m2
03:19 48.1 °F 34 °F 30.44 in ENE 2.2 mph 7 mph 58% 0.00 in 0 W/m2
03:24 48 °F 34 °F 30.44 in NE 2.1 mph 6 mph 58% 0.00 in 0 W/m2
03:29 48 °F 33.9 °F 30.44 in East 1.5 mph 5 mph 58% 0.00 in 0 W/m2
03:34 47.9 °F 34.1 °F 30.44 in ENE 0.5 mph 3 mph 58.6% 0.00 in 0 W/m2
03:39 47.8 °F 34.2 °F 30.44 in East 1.4 mph 5 mph 59% 0.00 in 0 W/m2
03:44 47.8 °F 34.2 °F 30.44 in ENE 1.1 mph 6 mph 59% 0.00 in 0 W/m2
03:49 47.7 °F 34.1 °F 30.44 in NW 1.1 mph 6 mph 59% 0.00 in 0 W/m2
03:54 47.7 °F 34.3 °F 30.45 in NNE 1.3 mph 8 mph 59.6% 0.00 in 0 W/m2
03:59 47.6 °F 34.4 °F 30.45 in North 0.7 mph 3 mph 60% 0.00 in 0 W/m2
04:04 47.6 °F 34.4 °F 30.45 in NE 1 mph 5 mph 60% 0.00 in 0 W/m2
04:09 47.5 °F 34.3 °F 30.45 in NE 0.7 mph 4 mph 60% 0.00 in 0 W/m2
04:14 47.5 °F 34.7 °F 30.46 in ESE 0.6 mph 4 mph 60.8% 0.00 in 0 W/m2
04:19 47.5 °F 34.7 °F 30.46 in ENE 0.5 mph 2 mph 60.8% 0.00 in 0 W/m2
04:24 47.4 °F 34.7 °F 30.46 in NE 0.7 mph 4 mph 61% 0.00 in 0 W/m2
04:29 47.4 °F 34.5 °F 30.46 in NW 0.6 mph 2 mph 60.7% 0.00 in 0 W/m2
04:34 47.4 °F 34.3 °F 30.47 in WNW 0.6 mph 6 mph 60.1% 0.00 in 0 W/m2
04:39 47.4 °F 34.3 °F 30.47 in NE 0.4 mph 2 mph 60.3% 0.00 in 0 W/m2
04:44 47.4 °F 34.7 °F 30.47 in NE 1.7 mph 7 mph 61% 0.00 in 0 W/m2
04:49 47.3 °F 35.3 °F 30.48 in NNE 0.5 mph 4 mph 62.7% 0.00 in 0 W/m2
04:54 47.3 °F 35.6 °F 30.48 in NNE 0.8 mph 3 mph 63.6% 0.01 in 0 W/m2
04:59 47.1 °F 36.5 °F 30.49 in North 0.7 mph 3 mph 66.6% 0.01 in 0 W/m2
05:04 46.8 °F 37.1 °F 30.48 in Calm   1 mph 68.9% 0.02 in 0 W/m2
05:09 46.5 °F 37.4 °F 30.48 in NNW 0.1 mph 1 mph 70.4% 0.02 in 0 W/m2
05:14 46.3 °F 37.5 °F 30.48 in NNW 0.2 mph 1 mph 71.2% 0.02 in 0 W/m2
05:19 45.9 °F 37.5 °F 30.48 in NNW 0.1 mph 1 mph 72.2% 0.02 in 0 W/m2
05:24 45.7 °F 37.6 °F 30.48 in NNW 0.2 mph 1 mph 73.2% 0.02 in 0 W/m2
05:29 45.4 °F 37.3 °F 30.48 in NNW 0.1 mph 1 mph 73% 0.02 in 0 W/m2
05:34 45.2 °F 37.3 °F 30.48 in NE 0.5 mph 4 mph 73.4% 0.02 in 0 W/m2
05:39 45.1 °F 37.2 °F 30.48 in SE 1.1 mph 5 mph 73.7% 0.02 in 0 W/m2
05:44 44.9 °F 36.8 °F 30.49 in NW 0.8 mph 5 mph 73% 0.02 in 0 W/m2
05:49 44.7 °F 36.6 °F 30.49 in WNW 0.2 mph 4 mph 72.8% 0.02 in 0 W/m2
05:54 44.6 °F 36.1 °F 30.49 in South 0.1 mph 2 mph 72% 0.02 in 0 W/m2
05:59 44.4 °F 36.1 °F 30.49 in SSW 0.4 mph 2 mph 72.2% 0.02 in 0 W/m2
06:04 44.3 °F 36.2 °F 30.49 in West 0.8 mph 4 mph 73% 0.01 in 0 W/m2
06:09 44.3 °F 35.7 °F 30.49 in WNW 0.5 mph 4 mph 71.7% 0.00 in 0 W/m2
06:14 44.3 °F 35.4 °F 30.49 in North 1.3 mph 8 mph 70.7% 0.00 in 0 W/m2
06:19 44.3 °F 35.1 °F 30.49 in NE 1.5 mph 6 mph 69.7% 0.00 in 0 W/m2
06:24 44.4 °F 34.9 °F 30.49 in North 0.3 mph 2 mph 69% 0.00 in 0 W/m2
06:29 44.4 °F 35.2 °F 30.50 in North 0.2 mph 2 mph 70% 0.00 in 0 W/m2
06:34 44.3 °F 35.5 °F 30.50 in ENE 0.4 mph 7 mph 70.9% 0.00 in 0 W/m2
06:39 44.2 °F 35.2 °F 30.50 in NNE 0.6 mph 7 mph 70.3% 0.00 in 0 W/m2
06:44 44.2 °F 35 °F 30.50 in NNW 1.1 mph 4 mph 70% 0.00 in 0 W/m2
06:49 44.1 °F 34.7 °F 30.50 in West 0.6 mph 3 mph 69.4% 0.00 in 0 W/m2
06:54 44 °F 34.9 °F 30.51 in SSE 0.9 mph 4 mph 70% 0.00 in 0 W/m2
06:59 43.9 °F 34.7 °F 30.51 in NNW 0.8 mph 3 mph 69.8% 0.00 in 0 W/m2
07:04 43.9 °F 34.6 °F 30.51 in NNE 0.2 mph 3 mph 69.7% 0.00 in 0 W/m2
07:09 43.8 °F 34.7 °F 30.51 in NNW 0.7 mph 3 mph 70% 0.00 in 0 W/m2
07:14 43.7 °F 34.6 °F 30.51 in NNW 0.9 mph 3 mph 70% 0.00 in 0 W/m2
07:19 43.7 °F 34.5 °F 30.51 in ENE 0.7 mph 3 mph 69.8% 0.00 in 0 W/m2
07:24 43.6 °F 34.5 °F 30.52 in North 0.6 mph 3 mph 70% 0.00 in 5 W/m2
07:29 43.6 °F 34.5 °F 30.52 in NNW 1 mph 3 mph 70% 0.00 in 9 W/m2
07:34 43.5 °F 34.4 °F 30.51 in East 1 mph 5 mph 70% 0.00 in 9 W/m2
07:39 43.5 °F 34.4 °F 30.52 in West 0.4 mph 3 mph 70% 0.00 in 12 W/m2
07:44 43.4 °F 34.3 °F 30.52 in WNW 0.8 mph 3 mph 70% 0.00 in 12 W/m2
07:49 43.3 °F 34.2 °F 30.52 in NNW 1.2 mph 3 mph 70% 0.00 in 19 W/m2
07:54 43.2 °F 34.1 °F 30.52 in NNW 0.7 mph 3 mph 70% 0.00 in 21 W/m2
07:59 43.2 °F 34.1 °F 30.52 in NNW 0.3 mph 2 mph 70% 0.00 in 21 W/m2
08:04 43.1 °F 34.1 °F 30.53 in NW 0.3 mph 4 mph 70.1% 0.00 in 26 W/m2
08:09 43.1 °F 34.1 °F 30.53 in NW 0.2 mph 1 mph 70.3% 0.00 in 47 W/m2
08:14 43.1 °F 34.3 °F 30.53 in NNE 0.9 mph 6 mph 70.6% 0.00 in 54 W/m2
08:19 43.2 °F 34.3 °F 30.53 in NNW 0.5 mph 6 mph 70.6% 0.00 in 53 W/m2
08:24 43.3 °F 34.3 °F 30.53 in SE 0.9 mph 4 mph 70.4% 0.00 in 67 W/m2
08:29 43.3 °F 34.2 °F 30.53 in NE 1.3 mph 4 mph 70% 0.00 in 79 W/m2
08:34 43.2 °F 34.1 °F 30.53 in ENE 1.6 mph 5 mph 70% 0.00 in 86 W/m2
08:39 43.2 °F 34.1 °F 30.53 in NNE 1.5 mph 5 mph 70% 0.00 in 141 W/m2
08:44 43.3 °F 34.3 °F 30.54 in NNE 0.9 mph 4 mph 70.4% 0.00 in 165 W/m2
08:48 43.4 °F 34.5 °F 30.54 in NW 0.2 mph 3 mph 70.6% 0.00 in 165 W/m2
66th and South
Compliments of Weather Underground - 10.67 mb